Time;durP1;ratioP1;P1;durP2;ratioP2;P2;SDS_P1;SDS_P2;PMS_P1;PMS_P2;Temp;Humidity;BMP_temperature;BMP_pressure;BME280_temperature;BME280_humidity;BME280_pressure;Samples;Min_cycle;Max_cycle;Signal;HPM_P1;HPM_P2
2022/10/01 00:00:22;;;;;;;;;5.00;3.33;;;;;15.35;67.88;100235.25;2091020;28;46829;-65
2022/10/01 00:01:22;;;;;;;;;3.25;3.25;;;;;15.35;68.14;100216.53;2087417;28;46129;-65
2022/10/01 00:02:23;;;;;;;;;4.33;4.33;;;;;15.34;67.88;100221.03;2094371;28;46866;-65
2022/10/01 00:03:25;;;;;;;;;6.33;3.33;;;;;15.32;68.13;100207.72;2096115;28;46573;-66
2022/10/01 00:04:27;;;;;;;;;3.00;3.00;;;;;15.35;68.24;100217.41;2095978;28;46086;-65
2022/10/01 00:05:27;;;;;;;;;2.75;2.75;;;;;15.35;67.30;100200.50;2091452;28;46419;-65
2022/10/01 00:06:27;;;;;;;;;3.33;3.33;;;;;15.36;67.54;100199.56;2088291;28;46902;-66
2022/10/01 00:07:27;;;;;;;;;2.33;2.33;;;;;15.37;67.86;100206.63;2096318;28;46261;-67
2022/10/01 00:08:29;;;;;;;;;3.67;3.00;;;;;15.37;67.58;100210.16;2096105;28;45503;-65
2022/10/01 00:09:31;;;;;;;;;3.00;3.00;;;;;15.39;67.44;100202.09;2095886;28;46761;-65
2022/10/01 00:10:31;;;;;;;;;3.75;3.75;;;;;15.39;67.68;100202.09;2091435;28;46214;-65
2022/10/01 00:11:33;;;;;;;;;2.67;2.67;;;;;15.39;67.78;100208.31;2089959;28;46561;-65
2022/10/01 00:12:34;;;;;;;;;4.00;4.00;;;;;15.38;67.61;100217.28;2078068;28;46475;-65
2022/10/01 00:13:35;;;;;;;;;3.50;3.50;;;;;15.39;68.23;100204.78;2072408;28;46401;-65
2022/10/01 00:14:37;;;;;;;;;5.00;5.00;;;;;15.38;67.74;100211.06;2087464;28;46245;-65
2022/10/01 00:15:39;;;;;;;;;2.50;2.50;;;;;15.36;68.30;100205.75;2095603;28;46892;-65
2022/10/01 00:16:40;;;;;;;;;4.00;3.00;;;;;15.38;68.11;100213.75;2096642;28;45695;-66
2022/10/01 00:17:42;;;;;;;;;2.67;2.67;;;;;15.38;67.82;100200.38;2091569;28;46533;-66
2022/10/01 00:18:44;;;;;;;;;4.25;4.25;;;;;15.38;67.87;100189.69;2096239;28;46122;-65
2022/10/01 00:19:44;;;;;;;;;3.75;3.75;;;;;15.36;68.04;100184.38;2093190;28;46409;-65
2022/10/01 00:20:45;;;;;;;;;3.33;3.33;;;;;15.38;68.11;100193.22;2095148;28;46449;-65
2022/10/01 00:21:45;;;;;;;;;3.00;3.00;;;;;15.38;68.51;100193.22;2095020;28;45596;-65
2022/10/01 00:22:46;;;;;;;;;0.00;0.00;;;;;15.37;67.79;100183.44;2094726;28;46278;-66
2022/10/01 00:23:51;;;;;;;;;3.67;3.67;;;;;15.40;67.37;100182.44;2096137;28;46248;-65
2022/10/01 00:24:52;;;;;;;;;4.00;4.00;;;;;15.39;67.89;100176.22;2095387;28;46929;-66
2022/10/01 00:25:52;;;;;;;;;3.00;3.00;;;;;15.40;68.30;100179.75;2094457;28;46286;-67
2022/10/01 00:26:52;;;;;;;;;3.00;3.00;;;;;15.38;68.22;100177.16;2087709;28;46709;-66
2022/10/01 00:27:53;;;;;;;;;4.00;4.00;;;;;15.39;68.07;100183.38;2088717;28;47187;-65
2022/10/01 00:28:58;;;;;;;;;3.00;3.00;;;;;15.39;68.00;100178.03;2069922;28;46425;-66
2022/10/01 00:29:59;;;;;;;;;3.00;3.00;;;;;15.40;68.16;100174.41;2069969;28;45908;-64
2022/10/01 00:30:59;;;;;;;;;3.00;3.00;;;;;15.40;67.79;100175.28;2090040;28;46292;-64
2022/10/01 00:32:00;;;;;;;;;2.67;2.67;;;;;15.42;68.29;100173.38;2087613;28;46844;-65
2022/10/01 00:33:01;;;;;;;;;3.25;3.25;;;;;15.43;68.23;100168.91;2092051;28;46509;-65
2022/10/01 00:34:02;;;;;;;;;2.33;2.33;;;;;15.43;68.39;100179.59;2096612;28;45567;-66
2022/10/01 00:35:03;;;;;;;;;3.25;3.25;;;;;15.43;68.42;100163.56;2096598;28;45217;-64
2022/10/01 00:36:05;;;;;;;;;3.00;3.00;;;;;15.44;68.24;100182.19;2094927;28;46442;-65
2022/10/01 00:37:08;;;;;;;;;3.00;3.00;;;;;15.45;67.98;100178.56;2088334;28;46682;-64
2022/10/01 00:38:09;;;;;;;;;1.75;1.75;;;;;15.47;68.88;100166.00;2083372;28;45627;-65
2022/10/01 00:39:11;;;;;;;;;5.00;4.00;;;;;15.46;68.85;100164.25;2087411;28;46179;-66
2022/10/01 00:40:11;;;;;;;;;4.50;3.50;;;;;15.45;68.74;100159.84;2089318;28;46272;-65
2022/10/01 00:41:11;;;;;;;;;2.33;2.33;;;;;15.45;68.74;100149.16;2095753;28;46204;-65
2022/10/01 00:42:17;;;;;;;;;2.00;2.00;;;;;15.45;68.65;100157.19;2095828;28;46522;-64
2022/10/01 00:43:20;;;;;;;;;3.00;3.00;;;;;15.44;68.81;100174.19;2096282;28;46387;-66
2022/10/01 00:44:33;;;;;;;;;2.50;2.50;;;;;15.45;67.71;100181.25;2096464;28;46779;-65
2022/10/01 00:45:33;;;;;;;;;2.75;2.75;;;;;15.45;67.78;100169.69;2098317;28;46434;-66
2022/10/01 00:46:42;;;;;;;;;2.00;2.00;;;;;15.44;68.59;100168.81;2091684;28;45079;-66
2022/10/01 00:47:49;;;;;;;;;1.25;1.25;;;;;15.45;68.85;100164.34;2093899;28;46427;-64
2022/10/01 00:48:59;;;;;;;;;1.75;1.75;;;;;15.46;68.96;100182.13;2097155;28;45976;-66
2022/10/01 00:50:18;;;;;;;;;1.00;1.00;;;;;15.47;68.54;100182.03;2100509;27;47111;-65
2022/10/01 00:51:19;;;;;;;;;4.50;3.75;;;;;15.48;69.27;100174.88;2089426;28;46945;-65
2022/10/01 00:52:24;;;;;;;;;2.50;2.50;;;;;15.47;69.10;100178.50;2102587;28;47069;-65
2022/10/01 00:53:26;;;;;;;;;5.00;4.75;;;;;15.46;69.05;100160.72;2099626;28;46604;-65
2022/10/01 00:54:38;;;;;;;;;3.00;3.00;;;;;15.45;69.29;100156.31;2106118;28;46946;-65
2022/10/01 00:55:42;;;;;;;;;3.00;3.00;;;;;15.45;69.73;100159.84;2100345;28;46059;-65
2022/10/01 00:56:44;;;;;;;;;3.25;3.25;;;;;15.45;68.96;100162.53;2094582;28;46717;-65
2022/10/01 00:57:44;;;;;;;;;3.00;2.75;;;;;15.45;69.31;100157.19;2094927;28;46543;-65
2022/10/01 00:58:45;;;;;;;;;3.00;2.67;;;;;15.46;69.10;100163.41;2100636;28;47432;-66
2022/10/01 00:59:46;;;;;;;;;3.00;3.00;;;;;15.47;69.23;100167.81;2097503;28;46609;-66
2022/10/01 01:00:49;;;;;;;;;2.00;2.00;;;;;15.47;69.18;100147.28;2105932;27;45132;-64
2022/10/01 01:01:49;;;;;;;;;3.50;2.75;;;;;15.46;69.22;100158.91;2099353;28;46041;-65
2022/10/01 01:02:49;;;;;;;;;5.00;3.33;;;;;15.48;69.35;100174.88;2089352;28;46642;-65
2022/10/01 01:03:50;;;;;;;;;4.00;4.00;;;;;15.47;69.35;100168.66;2090583;28;46028;-66
2022/10/01 01:04:50;;;;;;;;;6.00;5.33;;;;;15.47;69.88;100184.72;2091752;28;45466;-65
2022/10/01 01:05:50;;;;;;;;;2.33;2.33;;;;;15.46;70.24;100168.75;2097508;28;46518;-64
2022/10/01 01:06:59;;;;;;;;;5.33;5.33;;;;;15.46;69.40;100158.91;2095981;28;46390;-65
2022/10/01 01:08:02;;;;;;;;;1.50;1.50;;;;;15.46;69.73;100150.88;2088338;28;45670;-65
2022/10/01 01:09:03;;;;;;;;;2.25;2.25;;;;;15.46;70.01;100163.41;2087938;28;46940;-65
2022/10/01 01:10:04;;;;;;;;;1.25;1.25;;;;;15.46;69.94;100145.53;2087693;28;46629;-65
2022/10/01 01:11:30;;;;;;;;;2.00;2.00;;;;;15.47;69.55;100154.44;2079810;28;46905;-65
2022/10/01 01:12:44;;;;;;;;;1.75;1.75;;;;;15.47;70.49;100160.63;2089125;28;46510;-64
2022/10/01 01:14:02;;;;;;;;;2.25;2.25;;;;;15.47;70.63;100159.78;2096766;28;46033;-64
2022/10/01 01:15:19;;;;;;;;;1.75;1.75;;;;;15.47;70.48;100165.13;2098288;28;46363;-69
2022/10/01 01:16:32;;;;;;;;;3.00;3.00;;;;;15.46;70.06;100166.94;2091997;28;47187;-65
2022/10/01 01:17:42;;;;;;;;;3.00;1.25;;;;;15.45;70.72;100150.97;2093264;28;46419;-65
2022/10/01 01:19:19;;;;;;;;;2.00;2.00;;;;;15.42;70.67;100152.00;2097524;28;46663;-65
2022/10/01 01:20:47;;;;;;;;;3.00;3.00;;;;;15.42;70.32;100168.03;2102005;28;46374;-64
2022/10/01 01:21:54;;;;;;;;;1.25;1.25;;;;;15.42;70.49;100148.47;2097925;28;46847;-64
2022/10/01 01:23:11;;;;;;;;;1.75;1.75;;;;;15.43;70.26;100155.53;2096248;28;47024;-65
2022/10/01 01:24:32;;;;;;;;;2.75;2.75;;;;;15.42;70.68;100153.81;2097782;28;46152;-65
2022/10/01 01:25:46;;;;;;;;;3.75;2.00;;;;;15.43;70.23;100160.88;2097820;28;45921;-65
2022/10/01 01:27:08;;;;;;;;;2.75;2.25;;;;;15.43;70.24;100159.06;2088725;28;47392;-65
2022/10/01 01:28:30;;;;;;;;;2.00;2.00;;;;;15.43;70.41;100152.88;2090654;28;46956;-66
2022/10/01 01:30:05;;;;;;;;;2.75;2.75;;;;;15.45;70.85;100150.97;2090620;28;46395;-65
2022/10/01 01:31:13;;;;;;;;;3.75;3.75;;;;;15.45;71.01;100151.84;2095922;28;45347;-64
2022/10/01 01:32:22;;;;;;;;;2.25;2.25;;;;;15.45;70.50;100126.91;2097627;28;46504;-66
2022/10/01 01:33:26;;;;;;;;;1.50;1.50;;;;;15.45;70.77;100121.56;2094193;28;46486;-66
2022/10/01 01:34:31;;;;;;;;;2.25;2.25;;;;;15.45;70.89;100121.56;2097102;28;46599;-66
2022/10/01 01:35:41;;;;;;;;;2.50;2.50;;;;;15.46;71.51;100126.81;2097382;28;46183;-64
2022/10/01 01:36:48;;;;;;;;;2.00;1.25;;;;;15.46;70.87;100118.81;2090691;28;46315;-66
2022/10/01 01:37:56;;;;;;;;;2.50;2.50;;;;;15.47;71.55;100117.84;2094136;28;45978;-65
2022/10/01 01:39:03;;;;;;;;;1.75;1.75;;;;;15.48;71.36;100108.03;2091148;28;46604;-67
2022/10/01 01:40:09;;;;;;;;;3.25;3.25;;;;;15.46;71.38;100110.78;2097575;28;45978;-66
2022/10/01 01:41:11;;;;;;;;;1.00;1.00;;;;;15.47;71.42;100115.19;2095775;28;47251;-64
2022/10/01 01:42:28;;;;;;;;;2.25;2.25;;;;;15.47;71.82;100100.94;2091640;28;46555;-65
2022/10/01 01:43:33;;;;;;;;;1.75;1.75;;;;;15.45;71.91;100110.88;2088266;28;46022;-65
2022/10/01 01:44:38;;;;;;;;;1.75;1.75;;;;;15.45;71.84;100098.34;2090006;28;46111;-65
2022/10/01 01:45:42;;;;;;;;;2.25;1.25;;;;;15.46;71.77;100096.53;2097037;28;46717;-65
2022/10/01 01:46:45;;;;;;;;;1.75;1.50;;;;;15.46;71.86;100100.09;2092149;28;46784;-65
2022/10/01 01:47:46;;;;;;;;;1.25;1.25;;;;;15.46;71.41;100116.13;2090951;28;46737;-64
2022/10/01 01:48:50;;;;;;;;;0.33;0.33;;;;;15.46;70.81;100116.13;2093704;28;46253;-64
2022/10/01 01:49:51;;;;;;;;;0.25;0.25;;;;;15.47;71.70;100109.84;2096142;28;47121;-65
2022/10/01 01:51:13;;;;;;;;;1.00;1.00;;;;;15.48;71.42;100105.34;2090507;28;46823;-64
2022/10/01 01:52:14;;;;;;;;;1.25;1.25;;;;;15.51;71.55;100107.88;2097194;28;47682;-64
2022/10/01 01:53:15;;;;;;;;;0.00;0.00;;;;;15.50;71.77;100098.09;2087859;28;46811;-65
2022/10/01 01:54:17;;;;;;;;;1.67;1.00;;;;;15.50;71.70;100112.38;2087951;28;45972;-65
2022/10/01 01:55:18;;;;;;;;;2.25;2.25;;;;;15.50;71.69;100116.81;2097025;28;46331;-65
2022/10/01 01:56:18;;;;;;;;;1.00;1.00;;;;;15.51;71.75;100105.22;2097253;28;47024;-64
2022/10/01 01:57:19;;;;;;;;;0.00;0.00;;;;;15.51;71.46;100110.56;2090735;28;46680;-65
2022/10/01 01:58:20;;;;;;;;;1.50;1.50;;;;;15.51;71.88;100111.44;2094784;28;46173;-65
2022/10/01 01:59:20;;;;;;;;;1.00;1.00;;;;;15.52;71.44;100097.13;2094309;28;46461;-65
2022/10/01 02:00:21;;;;;;;;;0.00;0.00;;;;;15.54;71.18;100113.06;2090542;28;46626;-65
2022/10/01 02:01:39;;;;;;;;;0.00;0.00;;;;;15.53;71.79;100104.19;2095851;28;46260;-65
2022/10/01 02:02:45;;;;;;;;;0.00;0.00;;;;;15.55;71.94;100114.81;2097171;28;46191;-66
2022/10/01 02:03:46;;;;;;;;;0.00;0.00;;;;;15.55;72.04;100109.44;2095099;28;46594;-64
2022/10/01 02:04:53;;;;;;;;;1.00;1.00;;;;;15.54;71.65;100105.91;2088756;28;46640;-65
2022/10/01 02:06:12;;;;;;;;;0.25;0.25;;;;;15.54;71.58;100111.25;2094558;28;46669;-63
2022/10/01 02:07:46;;;;;;;;;0.75;0.75;;;;;15.56;72.37;100092.47;2097039;28;45988;-66
2022/10/01 02:09:00;;;;;;;;;0.50;0.50;;;;;15.56;72.58;100109.38;2096915;28;46324;-66
2022/10/01 02:10:15;;;;;;;;;1.00;0.25;;;;;15.57;72.19;100102.22;2096489;28;46784;-65
2022/10/01 02:11:36;;;;;;;;;0.25;0.25;;;;;15.58;71.82;100106.59;2087922;28;45722;-65
2022/10/01 02:12:40;;;;;;;;;0.00;0.00;;;;;15.58;71.42;100107.47;2081368;28;46400;-65
2022/10/01 02:13:55;;;;;;;;;0.25;0.25;;;;;15.59;71.51;100105.66;2087397;28;45136;-65
2022/10/01 02:15:06;;;;;;;;;0.50;0.50;;;;;15.62;71.56;100107.34;2087101;28;45414;-64
2022/10/01 02:16:17;;;;;;;;;0.00;0.00;;;;;15.62;71.21;100097.50;2087555;28;46563;-64
2022/10/01 02:17:51;;;;;;;;;0.00;0.00;;;;;15.61;71.43;100103.81;2083472;28;45766;-66
2022/10/01 02:19:08;;;;;;;;;0.25;0.25;;;;;15.62;71.95;100110.00;2056096;28;45741;-65
2022/10/01 02:20:24;;;;;;;;;0.25;0.00;;;;;15.63;71.39;100098.41;2054876;28;46469;-64
2022/10/01 02:21:30;;;;;;;;;0.00;0.00;;;;;15.63;72.16;100101.06;2060221;28;46772;-65
2022/10/01 02:22:46;;;;;;;;;0.75;0.75;;;;;15.63;71.95;100107.28;2054580;28;46696;-64
2022/10/01 02:23:52;;;;;;;;;0.25;0.25;;;;;15.63;71.81;100093.91;2055032;28;46284;-65
2022/10/01 02:24:58;;;;;;;;;0.25;0.25;;;;;15.62;71.11;100100.19;2058136;28;46058;-65
2022/10/01 02:26:09;;;;;;;;;0.25;0.00;;;;;15.64;71.92;100070.69;2054890;28;46518;-66
2022/10/01 02:27:36;;;;;;;;;0.50;0.50;;;;;15.63;71.66;100090.38;2047121;28;46436;-66
2022/10/01 02:28:40;;;;;;;;;0.00;0.00;;;;;15.63;71.90;100079.69;2052124;28;45922;-63
2022/10/01 02:29:43;;;;;;;;;1.00;1.00;;;;;15.63;71.62;100083.22;2054615;28;46781;-64
2022/10/01 02:30:46;;;;;;;;;0.75;0.00;;;;;15.65;71.82;100094.69;2054793;28;46902;-64
2022/10/01 02:31:52;;;;;;;;;0.25;0.00;;;;;15.66;71.91;100090.22;2054605;28;46459;-65
2022/10/01 02:32:55;;;;;;;;;0.25;0.25;;;;;15.67;71.92;100095.47;2054279;28;46671;-64
2022/10/01 02:33:59;;;;;;;;;1.00;1.00;;;;;15.68;71.83;100075.81;2054567;28;46785;-65
2022/10/01 02:35:03;;;;;;;;;0.25;0.25;;;;;15.69;71.95;100085.56;2060624;28;46855;-65
2022/10/01 02:36:06;;;;;;;;;0.00;0.00;;;;;15.70;71.88;100084.59;2061486;28;46934;-64
2022/10/01 02:37:10;;;;;;;;;0.00;0.00;;;;;15.70;71.49;100099.78;2054696;28;46787;-65
2022/10/01 02:38:14;;;;;;;;;0.00;0.00;;;;;15.72;71.41;100092.53;2054814;28;45919;-64
2022/10/01 02:39:16;;;;;;;;;0.75;0.00;;;;;15.74;70.97;100087.97;2055089;28;46325;-65
2022/10/01 02:40:25;;;;;;;;;0.00;0.00;;;;;15.73;71.44;100100.47;2062395;28;46839;-66
2022/10/01 02:41:32;;;;;;;;;0.25;0.00;;;;;15.74;71.13;100074.59;2058053;28;46294;-65
2022/10/01 02:42:36;;;;;;;;;0.25;0.25;;;;;15.75;71.85;100077.22;2054509;28;46700;-65
2022/10/01 02:43:43;;;;;;;;;0.00;0.00;;;;;15.74;71.87;100071.91;2054813;28;46866;-64
2022/10/01 02:44:48;;;;;;;;;0.00;0.00;;;;;15.77;71.90;100077.13;2054178;28;46744;-64
2022/10/01 02:45:56;;;;;;;;;0.00;0.00;;;;;15.77;72.19;100079.81;2058718;28;46917;-64
2022/10/01 02:47:20;;;;;;;;;0.25;0.25;;;;;15.77;72.06;100080.66;2062393;28;46568;-65
2022/10/01 02:48:20;;;;;;;;;0.00;0.00;;;;;15.78;71.71;100077.03;2066737;28;46977;-65
2022/10/01 02:49:21;;;;;;;;;0.67;0.33;;;;;15.79;71.54;100076.09;2062987;28;45931;-66
2022/10/01 02:50:26;;;;;;;;;0.00;0.00;;;;;15.80;71.49;100077.81;2062539;28;46594;-64
2022/10/01 02:51:49;;;;;;;;;0.50;0.00;;;;;15.83;71.65;100071.44;2064532;28;46904;-64
2022/10/01 02:53:03;;;;;;;;;0.00;0.00;;;;;15.82;72.34;100075.94;2062962;28;47005;-65
2022/10/01 02:54:12;;;;;;;;;0.00;0.00;;;;;15.82;72.07;100067.91;2067672;28;46181;-64
2022/10/01 02:55:18;;;;;;;;;0.00;0.00;;;;;15.81;72.41;100060.81;2058082;28;46458;-65
2022/10/01 02:57:21;;;;;;;;;0.00;0.00;;;;;15.82;71.67;100067.03;2067679;28;46791;-65
2022/10/01 02:57:41;;;;;;;;;0.75;0.75;;;;;15.81;71.94;100058.16;2096605;28;46733;-65
2022/10/01 02:58:41;;;;;;;;;0.00;0.00;;;;;15.83;71.91;100055.38;2099297;28;46016;-64
2022/10/01 02:59:41;;;;;;;;;0.00;0.00;;;;;15.82;72.32;100043.81;2096436;28;46993;-65
2022/10/01 03:00:41;;;;;;;;;0.00;0.00;;;;;15.83;72.40;100044.69;2096788;28;46410;-65
2022/10/01 03:01:42;;;;;;;;;0.00;0.00;;;;;15.83;71.78;100045.53;2097818;28;46706;-65
2022/10/01 03:02:42;;;;;;;;;0.00;0.00;;;;;15.84;72.12;100043.72;2105460;28;46519;-66
2022/10/01 03:03:42;;;;;;;;;0.00;0.00;;;;;15.84;71.85;100036.56;2104677;28;45618;-65
2022/10/01 03:04:43;;;;;;;;;0.00;0.00;;;;;15.85;71.87;100037.44;2104871;28;46731;-64
2022/10/01 03:05:43;;;;;;;;;0.00;0.00;;;;;15.86;71.72;100041.84;2088176;28;46633;-65
2022/10/01 03:06:44;;;;;;;;;0.00;0.00;;;;;15.87;72.23;100043.56;2089189;28;46670;-65
2022/10/01 03:07:45;;;;;;;;;0.00;0.00;;;;;15.87;71.93;100039.06;2088437;28;46030;-65
2022/10/01 03:08:45;;;;;;;;;0.00;0.00;;;;;15.88;71.82;100050.66;2092637;28;47669;-64
2022/10/01 03:09:46;;;;;;;;;0.00;0.00;;;;;15.88;71.99;100032.81;2090960;28;46530;-65
2022/10/01 03:10:46;;;;;;;;;0.00;0.00;;;;;15.89;72.01;100031.84;2091282;28;46225;-66
2022/10/01 03:11:46;;;;;;;;;0.00;0.00;;;;;15.89;72.09;100028.31;2095852;28;46215;-64
2022/10/01 03:12:47;;;;;;;;;0.33;0.33;;;;;15.91;71.65;100034.44;2088182;28;46806;-65
2022/10/01 03:13:47;;;;;;;;;0.00;0.00;;;;;15.92;72.46;100029.94;2100385;28;46533;-65
2022/10/01 03:14:48;;;;;;;;;0.00;0.00;;;;;15.93;72.46;100029.88;2099729;28;46612;-65
2022/10/01 03:15:48;;;;;;;;;0.25;0.25;;;;;15.93;72.63;100023.66;2092331;28;46813;-65
2022/10/01 03:16:49;;;;;;;;;0.00;0.00;;;;;15.93;72.75;100031.69;2099863;28;46857;-65
2022/10/01 03:17:51;;;;;;;;;0.00;0.00;;;;;15.92;72.34;100038.84;2094125;28;46578;-65
2022/10/01 03:18:51;;;;;;;;;0.00;0.00;;;;;15.94;71.79;100031.59;2104984;28;46463;-65
2022/10/01 03:19:52;;;;;;;;;0.00;0.00;;;;;15.95;72.36;100029.78;2097480;28;46759;-65
2022/10/01 03:20:52;;;;;;;;;0.00;0.00;;;;;15.94;72.16;100034.28;2094988;28;46653;-65
2022/10/01 03:21:55;;;;;;;;;0.00;0.00;;;;;15.95;72.16;100037.81;2104319;28;45907;-64
2022/10/01 03:22:55;;;;;;;;;0.00;0.00;;;;;15.95;72.01;100035.13;2102129;28;47322;-66
2022/10/01 03:23:55;;;;;;;;;0.00;0.00;;;;;15.95;72.35;100036.00;2105094;28;46624;-64
2022/10/01 03:24:56;;;;;;;;;0.00;0.00;;;;;15.96;72.34;100037.72;2097343;28;46450;-66
2022/10/01 03:25:56;;;;;;;;;0.67;0.00;;;;;15.97;72.49;100041.25;2097990;28;46101;-66
2022/10/01 03:26:57;;;;;;;;;0.00;0.00;;;;;15.97;72.37;100033.22;2105220;28;47113;-66
2022/10/01 03:27:57;;;;;;;;;0.00;0.00;;;;;15.97;72.91;100031.41;2099632;28;45108;-66
2022/10/01 03:28:58;;;;;;;;;0.00;0.00;;;;;15.98;72.56;100038.50;2104871;28;45444;-67
2022/10/01 03:29:58;;;;;;;;;0.00;0.00;;;;;15.98;72.83;100033.13;2090977;28;46110;-64
2022/10/01 03:31:06;;;;;;;;;0.00;0.00;;;;;15.98;72.62;100022.44;2091667;28;46111;-66
2022/10/01 03:32:06;;;;;;;;;0.00;0.00;;;;;15.99;72.47;100032.19;2088194;28;46809;-65
2022/10/01 03:33:07;;;;;;;;;0.00;0.00;;;;;16.00;72.85;100031.25;2097622;28;46546;-65
2022/10/01 03:34:07;;;;;;;;;0.00;0.00;;;;;16.00;72.63;100047.28;2098347;28;46566;-65
2022/10/01 03:35:08;;;;;;;;;0.00;0.00;;;;;16.00;72.37;100036.59;2097735;28;46640;-67
2022/10/01 03:36:08;;;;;;;;;0.00;0.00;;;;;16.02;72.43;100031.19;2085011;28;46484;-64
2022/10/01 03:37:09;;;;;;;;;0.00;0.00;;;;;16.01;73.08;100033.00;2080079;28;46294;-64
2022/10/01 03:38:09;;;;;;;;;0.00;0.00;;;;;16.03;72.65;100038.25;2089443;28;46012;-68
2022/10/01 03:39:10;;;;;;;;;0.00;0.00;;;;;16.03;71.88;100032.91;2095891;28;46551;-65
2022/10/01 03:40:10;;;;;;;;;0.00;0.00;;;;;16.05;72.31;100036.34;2091346;28;45878;-65
2022/10/01 03:41:10;;;;;;;;;0.00;0.00;;;;;16.05;72.47;100036.34;2092034;28;46360;-66
2022/10/01 03:42:11;;;;;;;;;0.00;0.00;;;;;16.07;72.68;100027.28;2089204;28;45620;-65
2022/10/01 03:43:11;;;;;;;;;0.00;0.00;;;;;16.06;72.24;100022.88;2088287;28;46142;-65
2022/10/01 03:44:12;;;;;;;;;0.00;0.00;;;;;16.07;72.69;100027.28;2095516;28;46606;-64
2022/10/01 03:45:12;;;;;;;;;0.00;0.00;;;;;16.08;72.50;100028.16;2096328;28;46646;-64
2022/10/01 03:46:12;;;;;;;;;0.00;0.00;;;;;16.07;72.54;100029.97;2094998;28;46419;-66
2022/10/01 03:47:13;;;;;;;;;0.00;0.00;;;;;16.08;72.31;100037.03;2088144;28;46832;-64
2022/10/01 03:48:13;;;;;;;;;0.00;0.00;;;;;16.06;71.91;100033.59;2089265;28;46173;-66
2022/10/01 03:49:13;;;;;;;;;0.00;0.00;;;;;16.07;72.63;100027.28;2100385;28;46581;-64
2022/10/01 03:50:14;;;;;;;;;0.00;0.00;;;;;16.09;72.41;100027.19;2090437;28;46657;-65
2022/10/01 03:51:14;;;;;;;;;0.00;0.00;;;;;16.08;72.61;100022.81;2091433;28;46130;-66
2022/10/01 03:52:15;;;;;;;;;0.00;0.00;;;;;16.09;72.46;100020.03;2096616;28;46623;-65
2022/10/01 03:53:15;;;;;;;;;0.00;0.00;;;;;16.10;73.04;100036.97;2093587;28;46562;-64
2022/10/01 03:54:16;;;;;;;;;0.00;0.00;;;;;16.11;72.70;100047.56;2095739;28;46861;-65
2022/10/01 03:55:18;;;;;;;;;0.00;0.00;;;;;16.11;72.75;100042.22;2096595;28;45895;-65
2022/10/01 03:56:18;;;;;;;;;0.00;0.00;;;;;16.11;72.85;100031.50;2096236;28;46750;-65
2022/10/01 03:57:18;;;;;;;;;0.00;0.00;;;;;16.13;72.68;100036.78;2088319;28;46689;-64
2022/10/01 03:58:19;;;;;;;;;0.00;0.00;;;;;16.12;72.50;100043.09;2092322;28;45778;-66
2022/10/01 03:59:20;;;;;;;;;0.00;0.00;;;;;16.13;73.25;100051.06;2087774;28;46959;-65
2022/10/01 04:00:21;;;;;;;;;0.00;0.00;;;;;16.12;73.07;100040.41;2079167;28;46681;-64
2022/10/01 04:01:21;;;;;;;;;0.00;0.00;;;;;16.11;72.41;100058.28;2086625;28;46316;-64
2022/10/01 04:02:21;;;;;;;;;0.00;0.00;;;;;16.12;72.75;100043.94;2088435;28;46847;-64
2022/10/01 04:03:22;;;;;;;;;0.00;0.00;;;;;16.13;73.10;100055.53;2094259;28;46701;-64
2022/10/01 04:04:22;;;;;;;;;0.00;0.00;;;;;16.12;73.00;100051.97;2093438;28;45941;-64
2022/10/01 04:05:24;;;;;;;;;0.00;0.00;;;;;16.12;73.09;100043.94;2091512;28;46340;-65
2022/10/01 04:06:24;;;;;;;;;0.00;0.00;;;;;16.12;73.53;100051.97;2078403;28;46367;-67
2022/10/01 04:07:25;;;;;;;;;0.00;0.00;;;;;16.13;73.69;100064.44;2078875;28;46441;-63
2022/10/01 04:08:25;;;;;;;;;0.00;0.00;;;;;16.14;73.30;100047.44;2094978;28;45817;-64
2022/10/01 04:09:25;;;;;;;;;0.00;0.00;;;;;16.15;73.87;100059.00;2094027;28;46534;-65
2022/10/01 04:10:26;;;;;;;;;1.00;0.00;;;;;16.15;73.37;100061.69;2092541;28;46828;-66
2022/10/01 04:11:26;;;;;;;;;0.00;0.00;;;;;16.15;73.81;100061.69;2087676;28;46427;-65
2022/10/01 04:12:27;;;;;;;;;0.00;0.00;;;;;16.17;73.43;100067.81;2094535;28;46672;-65
2022/10/01 04:13:28;;;;;;;;;0.00;0.00;;;;;16.17;73.64;100076.69;2096182;28;46681;-65
2022/10/01 04:14:29;;;;;;;;;0.00;0.00;;;;;16.18;73.14;100078.44;2087470;28;45572;-65
2022/10/01 04:15:30;;;;;;;;;0.00;0.00;;;;;16.19;73.83;100088.19;2078049;28;46087;-64
2022/10/01 04:16:33;;;;;;;;;0.00;0.00;;;;;16.21;73.91;100084.56;2086812;28;45847;-66
2022/10/01 04:17:35;;;;;;;;;0.00;0.00;;;;;16.21;73.79;100084.56;2079372;28;46900;-64
2022/10/01 04:18:35;;;;;;;;;0.00;0.00;;;;;16.21;73.46;100085.41;2079852;28;46415;-66
2022/10/01 04:19:36;;;;;;;;;0.00;0.00;;;;;16.21;73.44;100085.41;2087368;28;46336;-66
2022/10/01 04:20:37;;;;;;;;;0.00;0.00;;;;;16.22;73.83;100086.28;2087569;28;46301;-65
2022/10/01 04:21:38;;;;;;;;;0.00;0.00;;;;;16.23;73.61;100088.00;2087674;28;46232;-65
2022/10/01 04:22:39;;;;;;;;;0.00;0.00;;;;;16.23;73.33;100080.84;2078074;28;45518;-65
2022/10/01 04:23:40;;;;;;;;;0.00;0.00;;;;;16.26;73.16;100085.16;2078183;28;46408;-65
2022/10/01 04:24:40;;;;;;;;;0.00;0.00;;;;;16.27;73.31;100092.28;2078315;28;46687;-64
2022/10/01 04:25:41;;;;;;;;;0.00;0.00;;;;;16.27;73.25;100094.94;2079115;28;46213;-64
2022/10/01 04:26:41;;;;;;;;;0.00;0.00;;;;;16.27;73.83;100094.94;2079913;28;46191;-65
2022/10/01 04:27:56;;;;;;;;;0.00;0.00;;;;;16.27;74.24;100103.84;2071534;28;46867;-65
2022/10/01 04:28:56;;;;;;;;;0.00;0.00;;;;;16.27;73.73;100105.66;2073870;28;46760;-66
2022/10/01 04:29:56;;;;;;;;;0.00;0.00;;;;;16.25;73.79;100121.78;2080074;28;45588;-65
2022/10/01 04:32:20;;;;;;;;;0.00;0.00;;;;;16.24;73.82;100108.47;2080145;28;47117;-64
2022/10/01 04:33:20;;;;;;;;;0.00;0.00;;;;;16.23;74.55;100104.06;2080517;28;45723;-64
2022/10/01 04:34:51;;;;;;;;;0.00;0.00;;;;;16.22;74.41;100105.88;2087339;28;47049;-66
2022/10/01 04:35:42;;;;;;;;;0.00;0.00;;;;;16.22;74.97;100108.56;2080004;28;47065;-65
2022/10/01 04:36:42;;;;;;;;;0.00;0.00;;;;;16.21;74.72;100098.81;2079767;28;47121;-65
2022/10/01 04:37:42;;;;;;;;;0.00;0.00;;;;;16.23;74.58;100101.41;2079425;28;46328;-65
2022/10/01 04:38:43;;;;;;;;;0.00;0.00;;;;;16.23;75.55;100106.75;2066698;28;45804;-65
2022/10/01 04:39:43;;;;;;;;;0.00;0.00;;;;;16.24;74.82;100108.47;2066499;28;46679;-66
2022/10/01 04:40:44;;;;;;;;;0.00;0.00;;;;;16.26;75.13;100109.25;2079676;28;45811;-64
2022/10/01 04:41:44;;;;;;;;;0.00;0.00;;;;;16.27;75.26;100119.03;2071878;28;46050;-65
2022/10/01 04:42:45;;;;;;;;;0.00;0.00;;;;;16.26;74.65;100117.28;2074132;28;46490;-65
2022/10/01 04:43:45;;;;;;;;;0.00;0.00;;;;;16.27;74.94;100113.69;2071572;28;46812;-64
2022/10/01 04:44:46;;;;;;;;;0.00;0.00;;;;;16.28;74.64;100110.06;2071085;28;46656;-64
2022/10/01 04:45:46;;;;;;;;;0.00;0.00;;;;;16.29;74.37;100112.66;2080035;28;46488;-65
2022/10/01 04:46:46;;;;;;;;;0.00;0.00;;;;;16.30;75.16;100114.38;2079936;28;46889;-65
2022/10/01 04:47:51;;;;;;;;;0.00;0.00;;;;;16.30;75.18;100119.72;2080314;28;45989;-64
2022/10/01 04:48:52;;;;;;;;;0.00;0.00;;;;;16.31;74.91;100116.09;2076465;28;46121;-64
2022/10/01 04:49:52;;;;;;;;;0.00;0.00;;;;;16.31;74.73;100126.81;2079844;28;46520;-64
2022/10/01 04:50:52;;;;;;;;;0.00;0.00;;;;;16.32;75.23;100133.91;2080325;28;47236;-65
2022/10/01 04:51:52;;;;;;;;;0.00;0.00;;;;;16.34;75.17;100128.44;2080241;28;46467;-64
2022/10/01 04:52:53;;;;;;;;;0.00;0.00;;;;;16.33;75.18;100130.25;2079648;28;47210;-65
2022/10/01 04:53:54;;;;;;;;;0.00;0.00;;;;;16.36;74.70;100145.28;2080501;28;46678;-65
2022/10/01 04:54:54;;;;;;;;;0.00;0.00;;;;;16.36;74.42;100138.13;2095742;28;46689;-63
2022/10/01 04:55:55;;;;;;;;;0.00;0.00;;;;;16.38;75.06;100143.38;2097669;28;46769;-64
2022/10/01 04:56:57;;;;;;;;;0.00;0.00;;;;;16.39;75.52;100137.13;2096365;28;46028;-65
2022/10/01 04:57:57;;;;;;;;;0.00;0.00;;;;;16.41;74.79;100140.56;2097361;28;46365;-67
2022/10/01 04:58:57;;;;;;;;;0.00;0.00;;;;;16.42;74.83;100143.16;2097318;28;45742;-64
2022/10/01 04:59:58;;;;;;;;;0.00;0.00;;;;;16.43;75.01;100139.53;2097388;28;46729;-65